createdAt,value
2022-10-20T00:00:08.164Z,58.51
2022-10-20T00:02:34.774Z,58.56
2022-10-20T00:05:01.366Z,58.47
2022-10-20T00:07:27.697Z,58.52
2022-10-20T00:09:54.000Z,58.30
2022-10-20T00:12:20.314Z,58.50
2022-10-20T00:14:46.614Z,58.61
2022-10-20T00:17:12.932Z,58.69
2022-10-20T00:19:39.228Z,58.59
2022-10-20T00:22:05.539Z,58.44
2022-10-20T00:24:31.842Z,58.46
2022-10-20T00:26:58.148Z,58.50
2022-10-20T00:29:24.473Z,58.53
2022-10-20T00:31:50.787Z,58.46
2022-10-20T00:34:17.113Z,58.31
2022-10-20T00:36:46.323Z,58.41
2022-10-20T00:39:15.186Z,58.64
2022-10-20T00:41:41.572Z,58.66
2022-10-20T00:44:26.621Z,58.59
2022-10-20T00:46:52.943Z,58.47
2022-10-20T00:49:20.828Z,58.52
2022-10-20T00:51:47.161Z,58.75
2022-10-20T00:54:14.854Z,58.51
2022-10-20T00:56:41.889Z,58.41
2022-10-20T00:59:08.198Z,58.34
2022-10-20T01:01:34.543Z,58.34
2022-10-20T01:04:00.983Z,58.33
2022-10-20T01:06:27.294Z,58.46
2022-10-20T01:08:53.779Z,58.64
2022-10-20T01:11:26.239Z,58.35
2022-10-20T01:13:56.457Z,58.57
2022-10-20T01:16:37.146Z,58.69
2022-10-20T01:19:15.651Z,58.36
2022-10-20T01:21:45.923Z,58.56
2022-10-20T01:24:17.581Z,58.26
2022-10-20T01:26:52.362Z,58.35
2022-10-20T01:29:19.820Z,58.35
2022-10-20T01:31:50.248Z,58.38
2022-10-20T01:34:21.341Z,58.50
2022-10-20T01:36:49.083Z,58.49
2022-10-20T01:39:16.528Z,58.48
2022-10-20T01:41:43.703Z,58.38
2022-10-20T01:44:10.770Z,58.33
2022-10-20T01:46:37.175Z,58.31
2022-10-20T01:49:03.494Z,58.23
2022-10-20T01:51:29.869Z,58.51
2022-10-20T01:53:56.280Z,58.23
2022-10-20T01:56:30.989Z,58.02
2022-10-20T01:59:00.998Z,58.29
2022-10-20T02:01:45.950Z,58.16
2022-10-20T02:04:12.332Z,58.26
2022-10-20T02:06:51.611Z,58.52
2022-10-20T02:09:18.889Z,58.57
2022-10-20T02:11:49.429Z,58.26
2022-10-20T02:14:15.958Z,58.22
2022-10-20T02:16:44.262Z,58.33
2022-10-20T02:19:10.592Z,58.32
2022-10-20T02:21:40.375Z,58.13
2022-10-20T02:24:07.349Z,58.13
2022-10-20T02:26:33.911Z,58.13
2022-10-20T02:29:01.602Z,58.43
2022-10-20T02:31:27.931Z,58.18
2022-10-20T02:33:54.762Z,58.09
2022-10-20T02:36:21.246Z,58.21
2022-10-20T02:38:47.552Z,58.07
2022-10-20T02:41:13.911Z,58.26
2022-10-20T02:43:40.226Z,58.17
2022-10-20T02:46:06.663Z,58.04
2022-10-20T02:48:33.045Z,57.85
2022-10-20T02:50:59.370Z,57.76
2022-10-20T02:53:25.696Z,57.90
2022-10-20T02:55:52.041Z,57.66
2022-10-20T02:58:18.358Z,57.81
2022-10-20T03:00:44.737Z,57.56
2022-10-20T03:03:11.071Z,57.42
2022-10-20T03:05:41.793Z,57.52
2022-10-20T03:08:08.106Z,57.44
2022-10-20T03:10:35.273Z,57.64
2022-10-20T03:13:01.600Z,57.64
2022-10-20T03:15:27.904Z,58.01
2022-10-20T03:17:54.219Z,57.51
2022-10-20T03:20:20.541Z,57.88
2022-10-20T03:22:46.866Z,57.72
2022-10-20T03:25:13.182Z,57.74
2022-10-20T03:27:39.533Z,58.04
2022-10-20T03:30:06.060Z,57.78
2022-10-20T03:32:32.382Z,57.84
2022-10-20T03:34:58.701Z,57.88
2022-10-20T03:37:25.033Z,57.99
2022-10-20T03:39:51.342Z,58.02
2022-10-20T03:42:17.681Z,57.99
2022-10-20T03:44:46.875Z,58.20
2022-10-20T03:47:13.245Z,58.08
2022-10-20T03:49:40.357Z,58.34
2022-10-20T03:52:06.678Z,58.03
2022-10-20T03:54:33.012Z,58.20
2022-10-20T03:56:59.330Z,58.29
2022-10-20T03:59:28.123Z,58.37
2022-10-20T04:01:56.842Z,58.24
2022-10-20T04:04:23.171Z,58.52
2022-10-20T04:06:49.489Z,58.17
2022-10-20T04:09:15.796Z,58.31
2022-10-20T04:11:42.155Z,58.32
2022-10-20T04:14:08.462Z,58.22
2022-10-20T04:16:34.821Z,57.93
2022-10-20T04:19:01.125Z,58.29
2022-10-20T04:21:27.437Z,58.42
2022-10-20T04:23:53.756Z,57.96
2022-10-20T04:26:20.112Z,58.08
2022-10-20T04:28:46.462Z,58.40
2022-10-20T04:31:12.770Z,58.15
2022-10-20T04:33:39.082Z,58.38
2022-10-20T04:36:06.344Z,58.55
2022-10-20T04:38:32.694Z,58.17
2022-10-20T04:41:01.902Z,58.27
2022-10-20T04:43:30.770Z,58.44
2022-10-20T04:46:03.845Z,58.17
2022-10-20T04:48:33.402Z,58.11
2022-10-20T04:51:00.514Z,58.37
2022-10-20T04:53:26.830Z,58.29
2022-10-20T04:55:56.493Z,58.31
2022-10-20T04:58:22.945Z,58.48
2022-10-20T05:00:49.265Z,58.68
2022-10-20T05:03:15.591Z,58.72
2022-10-20T05:05:41.925Z,58.63
2022-10-20T05:08:08.234Z,58.47
2022-10-20T05:10:36.671Z,58.22
2022-10-20T05:13:03.228Z,58.13
2022-10-20T05:15:29.546Z,58.22
2022-10-20T05:17:55.855Z,58.30
2022-10-20T05:20:22.198Z,58.10
2022-10-20T05:22:48.506Z,58.16
2022-10-20T05:28:01.125Z,58.08
2022-10-20T05:30:27.457Z,58.28
2022-10-20T05:32:53.765Z,58.55
2022-10-20T05:35:20.088Z,58.48
2022-10-20T05:37:46.410Z,58.44
2022-10-20T05:40:12.786Z,58.34
2022-10-20T05:42:39.346Z,58.24
2022-10-20T05:45:05.982Z,58.59
2022-10-20T05:47:32.294Z,58.56
2022-10-20T05:49:58.618Z,60.55
2022-10-20T05:52:24.932Z,59.64
2022-10-20T05:54:51.304Z,58.57
2022-10-20T05:57:18.134Z,58.43
2022-10-20T05:59:44.501Z,52.06
2022-10-20T06:02:11.124Z,49.05
2022-10-20T06:04:37.457Z,47.02
2022-10-20T06:07:05.691Z,45.38
2022-10-20T06:09:32.010Z,45.16
2022-10-20T06:11:58.605Z,44.26
2022-10-20T06:14:25.805Z,43.79
2022-10-20T06:16:52.436Z,43.60
2022-10-20T06:19:18.836Z,43.42
2022-10-20T06:21:45.193Z,42.97
2022-10-20T06:24:11.638Z,43.25
2022-10-20T06:26:37.952Z,43.22
2022-10-20T06:29:08.359Z,47.11
2022-10-20T06:31:35.437Z,47.05
2022-10-20T06:34:01.800Z,46.42
2022-10-20T06:36:28.207Z,46.61
2022-10-20T06:38:55.222Z,46.65
2022-10-20T06:41:21.685Z,46.65
2022-10-20T06:43:48.062Z,46.03
2022-10-20T06:46:15.495Z,46.52
2022-10-20T06:48:41.821Z,47.52
2022-10-20T06:51:09.826Z,47.88
2022-10-20T06:53:36.361Z,48.13
2022-10-20T06:56:03.593Z,48.24
2022-10-20T06:58:29.914Z,48.75
2022-10-20T07:01:25.290Z,48.86
2022-10-20T07:03:53.189Z,48.57
2022-10-20T07:06:23.383Z,49.20
2022-10-20T07:08:51.033Z,49.99
2022-10-20T07:11:18.122Z,50.57
2022-10-20T07:13:44.452Z,50.56
2022-10-20T07:16:14.031Z,50.72
2022-10-20T07:18:40.480Z,50.89
2022-10-20T07:21:07.725Z,50.94
2022-10-20T07:23:34.412Z,51.67
2022-10-20T07:26:01.418Z,51.41
2022-10-20T07:28:27.849Z,51.12
2022-10-20T07:30:54.531Z,50.86
2022-10-20T07:33:20.850Z,51.23
2022-10-20T07:35:47.850Z,50.80
2022-10-20T07:38:14.162Z,50.80
2022-10-20T07:40:40.507Z,50.46
2022-10-20T07:43:06.906Z,50.91
2022-10-20T07:45:33.254Z,50.88
2022-10-20T07:47:59.566Z,51.02
2022-10-20T07:50:26.059Z,51.00
2022-10-20T07:52:52.619Z,51.12
2022-10-20T07:55:37.526Z,51.23
2022-10-20T07:58:05.162Z,50.92
2022-10-20T08:00:31.525Z,51.55
2022-10-20T08:02:57.915Z,51.38
2022-10-20T08:05:24.247Z,51.45
2022-10-20T08:07:50.558Z,52.08
2022-10-20T08:10:16.869Z,52.04
2022-10-20T08:12:43.178Z,52.07
2022-10-20T08:15:16.832Z,52.11
2022-10-20T08:17:43.142Z,51.77
2022-10-20T08:20:14.106Z,51.94
2022-10-20T08:22:40.422Z,51.65
2022-10-20T08:25:06.860Z,51.56
2022-10-20T08:27:33.173Z,51.84
2022-10-20T08:30:06.031Z,51.71
2022-10-20T08:32:38.922Z,52.00
2022-10-20T08:35:05.698Z,51.89
2022-10-20T08:37:32.011Z,52.25
2022-10-20T08:39:58.329Z,52.40
2022-10-20T08:42:24.714Z,51.55
2022-10-20T08:44:51.034Z,51.45
2022-10-20T08:47:26.694Z,52.13
2022-10-20T08:49:55.599Z,51.77
2022-10-20T08:52:22.583Z,51.75
2022-10-20T08:54:48.903Z,51.86
2022-10-20T08:57:19.083Z,52.11
2022-10-20T08:59:45.419Z,51.95
2022-10-20T09:02:15.381Z,51.84
2022-10-20T09:04:47.597Z,51.87
2022-10-20T09:07:20.320Z,52.07
2022-10-20T09:09:46.669Z,52.24
2022-10-20T09:12:14.964Z,52.46
2022-10-20T09:14:41.278Z,51.67
2022-10-20T09:17:12.414Z,52.13
2022-10-20T09:19:38.738Z,52.38
2022-10-20T09:22:05.667Z,52.43
2022-10-20T09:24:32.013Z,51.98
2022-10-20T09:26:59.872Z,52.70
2022-10-20T09:29:36.605Z,52.34
2022-10-20T09:32:15.432Z,52.32
2022-10-20T09:34:49.249Z,52.41
2022-10-20T09:37:16.651Z,52.31
2022-10-20T09:40:03.151Z,52.46
2022-10-20T09:42:30.278Z,52.22
2022-10-20T09:44:57.096Z,52.35
2022-10-20T09:47:23.895Z,52.49
2022-10-20T09:49:59.905Z,52.77
2022-10-20T09:52:30.484Z,52.51
2022-10-20T09:55:01.327Z,52.11
2022-10-20T09:57:27.689Z,52.15
2022-10-20T09:59:54.010Z,49.90
2022-10-20T10:02:20.249Z,46.30
2022-10-20T10:04:47.271Z,46.18
2022-10-20T10:07:22.599Z,46.29
2022-10-20T10:10:00.415Z,48.72
2022-10-20T10:12:29.415Z,48.91
2022-10-20T10:14:56.917Z,49.07
2022-10-20T10:17:29.898Z,49.30
2022-10-20T10:19:56.533Z,49.51
2022-10-20T10:22:22.935Z,50.05
2022-10-20T10:24:49.254Z,50.66
2022-10-20T10:27:28.442Z,50.25
2022-10-20T10:29:55.159Z,50.58
2022-10-20T10:32:25.650Z,51.05
2022-10-20T10:35:04.167Z,51.12
2022-10-20T10:37:33.871Z,51.19
2022-10-20T10:40:02.106Z,51.18
2022-10-20T10:42:31.672Z,51.24
2022-10-20T10:45:03.260Z,52.12
2022-10-20T10:47:34.206Z,52.87
2022-10-20T10:50:20.573Z,52.05
2022-10-20T10:53:01.594Z,51.63
2022-10-20T10:55:47.672Z,51.65
2022-10-20T10:58:24.361Z,51.78
2022-10-20T11:01:05.723Z,51.96
2022-10-20T11:03:50.574Z,52.11
2022-10-20T11:06:32.198Z,52.38
2022-10-20T11:09:16.229Z,51.99
2022-10-20T11:11:48.754Z,52.25
2022-10-20T11:14:21.364Z,52.67
2022-10-20T11:16:47.626Z,52.86
2022-10-20T11:19:13.880Z,53.24
2022-10-20T11:21:50.178Z,53.46
2022-10-20T11:24:18.065Z,53.46
2022-10-20T11:26:50.297Z,53.24
2022-10-20T11:29:17.924Z,53.08
2022-10-20T11:31:54.782Z,52.95
2022-10-20T11:34:28.221Z,53.00
2022-10-20T11:37:06.527Z,53.34
2022-10-20T11:39:47.866Z,53.57
2022-10-20T11:42:20.170Z,53.21
2022-10-20T11:44:46.493Z,52.80
2022-10-20T11:47:13.507Z,52.86
2022-10-20T11:49:40.149Z,52.83
2022-10-20T11:52:20.302Z,52.52
2022-10-20T11:55:00.481Z,52.33
2022-10-20T11:57:35.730Z,52.59
2022-10-20T12:00:01.980Z,52.99
2022-10-20T12:02:43.309Z,53.10
2022-10-20T12:05:09.538Z,52.69
2022-10-20T12:08:05.596Z,52.80
2022-10-20T12:10:48.345Z,53.33
2022-10-20T12:13:18.334Z,52.83
2022-10-20T12:15:48.313Z,52.76
2022-10-20T12:18:30.557Z,52.78
2022-10-20T12:21:00.680Z,52.89
2022-10-20T12:23:57.535Z,53.05
2022-10-20T12:26:29.917Z,53.40
2022-10-20T12:28:56.606Z,53.10
2022-10-20T12:31:23.015Z,53.14
2022-10-20T12:33:49.253Z,53.00
2022-10-20T12:36:18.361Z,53.47
2022-10-20T12:38:45.273Z,53.01
2022-10-20T12:41:12.380Z,53.18
2022-10-20T12:43:46.545Z,53.75
2022-10-20T12:46:15.905Z,53.75
2022-10-20T12:48:43.524Z,49.55
2022-10-20T12:51:17.750Z,50.17
2022-10-20T12:53:44.065Z,50.25
2022-10-20T12:56:10.675Z,51.11
2022-10-20T12:58:37.559Z,51.57
2022-10-20T13:01:05.305Z,51.93
2022-10-20T13:03:31.578Z,52.04
2022-10-20T13:05:58.293Z,52.45
2022-10-20T13:08:28.429Z,52.81
2022-10-20T13:10:54.837Z,53.29
2022-10-20T13:13:21.162Z,52.90
2022-10-20T13:15:48.393Z,53.46
2022-10-20T13:18:20.032Z,52.85
2022-10-20T13:20:46.295Z,53.23
2022-10-20T13:23:12.815Z,53.22
2022-10-20T13:25:39.949Z,53.25
2022-10-20T13:28:12.322Z,53.13
2022-10-20T13:30:42.205Z,53.39
2022-10-20T13:33:33.727Z,53.66
2022-10-20T13:36:04.954Z,53.00
2022-10-20T13:38:32.873Z,53.41
2022-10-20T13:41:11.351Z,53.35
2022-10-20T13:43:56.638Z,53.21
2022-10-20T13:46:27.151Z,53.35
2022-10-20T13:49:07.228Z,53.67
2022-10-20T13:51:42.764Z,53.68
2022-10-20T13:54:09.100Z,53.03
2022-10-20T13:56:36.170Z,53.33
2022-10-20T13:59:06.135Z,53.49
2022-10-20T14:01:33.481Z,53.55
2022-10-20T14:03:59.817Z,53.67
2022-10-20T14:06:33.202Z,53.35
2022-10-20T14:09:03.871Z,53.36
2022-10-20T14:11:30.269Z,52.89
2022-10-20T14:13:56.906Z,52.56
2022-10-20T14:16:23.665Z,52.84
2022-10-20T14:18:59.917Z,52.77
2022-10-20T14:21:28.630Z,53.07
2022-10-20T14:23:55.554Z,53.02
2022-10-20T14:26:21.921Z,52.96
2022-10-20T14:28:51.402Z,53.25
2022-10-20T14:31:20.212Z,53.13
2022-10-20T14:33:46.591Z,53.38
2022-10-20T14:36:22.878Z,53.16
2022-10-20T14:38:50.095Z,52.98
2022-10-20T14:41:29.374Z,52.80
2022-10-20T14:43:56.746Z,53.10
2022-10-20T14:46:28.378Z,53.21
2022-10-20T14:48:54.707Z,53.35
2022-10-20T14:51:33.153Z,53.47
2022-10-20T14:54:18.210Z,53.99
2022-10-20T14:56:45.033Z,54.03
2022-10-20T14:59:14.746Z,54.20
2022-10-20T15:01:47.786Z,54.08
2022-10-20T15:04:16.111Z,54.41
2022-10-20T15:06:43.184Z,54.42
2022-10-20T15:09:30.181Z,54.43
2022-10-20T15:11:56.526Z,51.81
2022-10-20T15:14:22.880Z,52.30
2022-10-20T15:16:49.256Z,52.21
2022-10-20T15:19:26.322Z,52.26
2022-10-20T15:21:57.655Z,52.33
2022-10-20T15:24:24.006Z,53.05
2022-10-20T15:26:50.334Z,53.25
2022-10-20T15:29:16.663Z,53.51
2022-10-20T15:31:43.015Z,53.74
2022-10-20T15:34:09.370Z,53.93
2022-10-20T15:36:41.747Z,53.81
2022-10-20T15:39:08.742Z,54.29
2022-10-20T15:41:35.242Z,54.32
2022-10-20T15:44:07.698Z,54.26
2022-10-20T15:46:34.016Z,54.36
2022-10-20T15:49:00.357Z,54.20
2022-10-20T15:51:27.261Z,54.49
2022-10-20T15:53:53.688Z,54.52
2022-10-20T15:56:20.013Z,54.63
2022-10-20T15:58:46.360Z,54.92
2022-10-20T16:01:12.973Z,54.57
2022-10-20T16:03:41.227Z,54.87
2022-10-20T16:06:07.548Z,54.91
2022-10-20T16:08:35.344Z,54.85
2022-10-20T16:11:02.210Z,55.21
2022-10-20T16:13:28.538Z,55.45
2022-10-20T16:15:54.858Z,55.66
2022-10-20T16:18:21.187Z,55.34
2022-10-20T16:20:47.511Z,55.05
2022-10-20T16:23:13.841Z,55.09
2022-10-20T16:25:40.479Z,55.10
2022-10-20T16:28:06.803Z,55.26
2022-10-20T16:30:33.133Z,55.33
2022-10-20T16:32:59.456Z,55.13
2022-10-20T16:35:25.826Z,55.08
2022-10-20T16:37:52.148Z,55.28
2022-10-20T16:40:19.324Z,55.21
2022-10-20T16:42:45.633Z,55.56
2022-10-20T16:45:13.148Z,55.50
2022-10-20T16:47:39.912Z,55.65
2022-10-20T16:50:06.559Z,55.42
2022-10-20T16:52:32.926Z,55.60
2022-10-20T16:54:59.260Z,55.54
2022-10-20T16:57:26.672Z,55.29
2022-10-20T16:59:53.002Z,55.47
2022-10-20T17:02:19.354Z,55.51
2022-10-20T17:04:49.301Z,55.41
2022-10-20T17:07:15.842Z,55.64
2022-10-20T17:09:42.162Z,55.51
2022-10-20T17:12:08.478Z,55.70
2022-10-20T17:14:34.809Z,55.50
2022-10-20T17:17:01.127Z,55.76
2022-10-20T17:19:27.465Z,55.80
2022-10-20T17:21:56.151Z,55.89
2022-10-20T17:24:24.294Z,55.44
2022-10-20T17:26:50.627Z,55.40
2022-10-20T17:29:16.953Z,55.64
2022-10-20T17:31:43.286Z,55.61
2022-10-20T17:34:09.616Z,55.83
2022-10-20T17:36:35.933Z,55.52
2022-10-20T17:39:03.654Z,55.69
2022-10-20T17:41:30.069Z,55.71
2022-10-20T17:43:58.390Z,55.85
2022-10-20T17:46:24.725Z,55.62
2022-10-20T17:48:51.055Z,55.77
2022-10-20T17:51:19.394Z,55.79
2022-10-20T17:53:47.851Z,55.92
2022-10-20T17:56:18.079Z,56.21
2022-10-20T17:58:44.785Z,55.77
2022-10-20T18:01:11.075Z,55.67
2022-10-20T18:03:37.468Z,55.94
2022-10-20T18:06:07.602Z,56.25
2022-10-20T18:08:34.047Z,55.80
2022-10-20T18:11:00.403Z,55.19
2022-10-20T18:13:26.715Z,54.93
2022-10-20T18:15:53.043Z,54.98
2022-10-20T18:18:19.358Z,55.24
2022-10-20T18:20:55.623Z,55.54
2022-10-20T18:23:21.929Z,55.68
2022-10-20T18:25:48.314Z,55.28
2022-10-20T18:28:17.921Z,56.09
2022-10-20T18:30:44.491Z,56.13
2022-10-20T18:33:10.809Z,57.14
2022-10-20T18:35:37.300Z,56.95
2022-10-20T18:38:03.743Z,56.81
2022-10-20T18:40:30.074Z,57.91
2022-10-20T18:42:56.381Z,56.95
2022-10-20T18:45:25.260Z,56.89
2022-10-20T18:47:52.423Z,57.05
2022-10-20T18:50:18.734Z,56.90
2022-10-20T18:52:45.045Z,56.74
2022-10-20T18:55:11.761Z,56.91
2022-10-20T18:57:39.371Z,56.84
2022-10-20T19:00:06.895Z,56.95
2022-10-20T19:02:34.309Z,56.59
2022-10-20T19:05:01.175Z,56.88
2022-10-20T19:07:27.483Z,56.67
2022-10-20T19:09:55.603Z,56.59
2022-10-20T19:12:22.090Z,56.88
2022-10-20T19:14:48.413Z,56.90
2022-10-20T19:17:14.721Z,56.74
2022-10-20T19:19:43.087Z,56.82
2022-10-20T19:22:09.395Z,56.97
2022-10-20T19:24:39.687Z,56.54
2022-10-20T19:27:25.675Z,56.83
2022-10-20T19:29:52.312Z,56.77
2022-10-20T19:32:18.614Z,56.88
2022-10-20T19:34:45.278Z,56.69
2022-10-20T19:37:11.578Z,56.65
2022-10-20T19:39:38.704Z,56.60
2022-10-20T19:42:05.444Z,56.82
2022-10-20T19:44:31.778Z,56.84
2022-10-20T19:46:58.152Z,56.60
2022-10-20T19:49:24.487Z,56.46
2022-10-20T19:51:50.793Z,56.74
2022-10-20T19:54:17.113Z,56.96
2022-10-20T19:56:43.442Z,56.90
2022-10-20T19:59:09.873Z,57.08
2022-10-20T20:01:36.193Z,56.86
2022-10-20T20:04:02.802Z,56.64
2022-10-20T20:06:29.138Z,56.79
2022-10-20T20:08:59.408Z,56.97
2022-10-20T20:11:30.734Z,57.13
2022-10-20T20:13:57.911Z,57.12
2022-10-20T20:16:24.267Z,56.91
2022-10-20T20:18:50.640Z,56.85
2022-10-20T20:21:16.956Z,56.88
2022-10-20T20:24:00.107Z,56.86
2022-10-20T20:26:30.354Z,56.92
2022-10-20T20:28:56.714Z,56.80
2022-10-20T20:31:23.113Z,56.99
2022-10-20T20:33:49.482Z,56.95
2022-10-20T20:36:15.779Z,56.97
2022-10-20T20:38:42.361Z,56.76
2022-10-20T20:41:10.472Z,56.91
2022-10-20T20:43:36.794Z,56.72
2022-10-20T20:46:06.342Z,56.73
2022-10-20T20:48:32.670Z,56.64
2022-10-20T20:50:59.834Z,56.93
2022-10-20T20:53:26.199Z,57.24
2022-10-20T20:56:11.073Z,56.92
2022-10-20T20:58:37.383Z,56.88
2022-10-20T21:01:07.854Z,56.80
2022-10-20T21:03:34.205Z,57.02
2022-10-20T21:06:13.165Z,57.00
2022-10-20T21:08:39.735Z,56.78
2022-10-20T21:11:06.099Z,56.90
2022-10-20T21:13:32.866Z,56.96
2022-10-20T21:16:11.263Z,56.74
2022-10-20T21:18:37.945Z,57.00
2022-10-20T21:23:42.967Z,57.06
2022-10-20T21:26:09.471Z,56.63
2022-10-20T21:28:35.852Z,56.83
2022-10-20T21:31:05.846Z,56.77
2022-10-20T21:33:32.251Z,56.78
2022-10-20T21:36:05.167Z,56.91
2022-10-20T21:38:34.450Z,56.72
2022-10-20T21:41:10.820Z,57.00
2022-10-20T21:43:37.675Z,56.76
2022-10-20T21:46:27.299Z,56.89
2022-10-20T21:48:54.613Z,57.00
2022-10-20T21:51:21.735Z,57.00
2022-10-20T21:53:48.046Z,56.69
2022-10-20T21:56:14.385Z,56.84
2022-10-20T21:58:40.730Z,57.01
2022-10-20T22:01:17.382Z,56.73
2022-10-20T22:03:44.018Z,56.57
2022-10-20T22:06:10.699Z,56.74
2022-10-20T22:08:37.352Z,56.81
2022-10-20T22:11:04.422Z,56.72
2022-10-20T22:13:30.867Z,56.97
2022-10-20T22:15:57.186Z,56.94
2022-10-20T22:18:23.510Z,56.72
2022-10-20T22:20:49.835Z,56.83
2022-10-20T22:23:16.213Z,56.86
2022-10-20T22:25:42.579Z,56.67
2022-10-20T22:28:08.917Z,56.58
2022-10-20T22:30:35.282Z,56.69
2022-10-20T22:33:01.588Z,56.86
2022-10-20T22:35:27.973Z,56.76
2022-10-20T22:37:54.299Z,56.59
2022-10-20T22:40:20.611Z,56.54
2022-10-20T22:42:46.950Z,56.73
2022-10-20T22:45:13.291Z,56.81
2022-10-20T22:47:39.620Z,56.59
2022-10-20T22:50:06.097Z,56.46
2022-10-20T22:52:32.421Z,56.85
2022-10-20T22:54:58.725Z,56.65
2022-10-20T22:57:25.053Z,56.80
2022-10-20T22:59:51.694Z,56.83
2022-10-20T23:02:18.007Z,56.90
2022-10-20T23:04:44.321Z,56.70
2022-10-20T23:07:10.644Z,56.77
2022-10-20T23:09:36.970Z,56.69
2022-10-20T23:12:03.290Z,56.54
2022-10-20T23:14:29.608Z,56.75
2022-10-20T23:16:55.911Z,56.77
2022-10-20T23:19:22.256Z,56.85
2022-10-20T23:21:49.941Z,56.74
2022-10-20T23:24:16.302Z,56.62
2022-10-20T23:26:43.435Z,56.55
2022-10-20T23:29:09.882Z,56.59
2022-10-20T23:31:36.203Z,56.61
2022-10-20T23:34:02.521Z,56.65
2022-10-20T23:36:28.837Z,56.55
2022-10-20T23:38:55.155Z,56.63
2022-10-20T23:41:21.462Z,56.85
2022-10-20T23:43:47.782Z,56.57
2022-10-20T23:46:14.093Z,56.77
2022-10-20T23:48:40.432Z,56.62
2022-10-20T23:51:06.836Z,56.40
2022-10-20T23:53:34.600Z,56.45
2022-10-20T23:56:00.989Z,56.73
2022-10-20T23:58:27.315Z,56.58
